createdAt,value
2018-08-03T12:34:12.078Z,65.6
2018-08-03T12:35:01.312Z,65.7
2018-08-03T12:35:52.174Z,65.7
2018-08-03T12:36:42.553Z,65.7
2018-08-03T12:37:32.592Z,65.7
2018-08-03T12:38:22.611Z,65.8
2018-08-03T12:39:12.443Z,65.8
2018-08-03T12:40:02.869Z,65.8
2018-08-03T12:40:52.840Z,65.8
2018-08-03T12:41:42.642Z,65.8
2018-08-03T12:42:32.721Z,65.8
2018-08-03T12:43:23.549Z,65.9
2018-08-03T12:44:13.134Z,65.9
2018-08-03T12:45:02.911Z,65.9
2018-08-03T12:45:53.231Z,65.9
2018-08-03T12:46:43.326Z,65.9
2018-08-03T12:47:32.587Z,65.9
2018-08-03T12:48:23.169Z,66
2018-08-03T12:49:13.262Z,66
2018-08-03T12:50:03.593Z,66
2018-08-03T12:50:53.376Z,66
2018-08-03T12:51:44.652Z,66
2018-08-03T12:52:34.191Z,66.1
2018-08-03T12:53:23.585Z,66.1
2018-08-03T12:54:13.906Z,66.1
2018-08-03T12:55:03.983Z,66.1
2018-08-03T12:55:54.059Z,66.1
2018-08-03T12:56:44.114Z,66.1
2018-08-03T12:57:34.174Z,66.1
2018-08-03T12:58:23.951Z,66.2
2018-08-03T12:59:14.101Z,66.2
2018-08-03T13:00:04.121Z,66.2
2018-08-03T13:00:54.408Z,66.2
2018-08-03T13:01:44.464Z,66.2
2018-08-03T13:02:35.003Z,66.2
2018-08-03T13:03:24.619Z,66.2
2018-08-03T13:04:32.271Z,66.2
2018-08-03T13:05:21.996Z,66.3
2018-08-03T13:06:11.810Z,66.3
2018-08-03T13:07:02.185Z,66.3
2018-08-03T13:07:55.731Z,66.3
2018-08-03T13:08:41.964Z,66.3
2018-08-03T13:09:32.904Z,66.3
2018-08-03T13:10:22.124Z,66.3
2018-08-03T13:11:12.464Z,66.3
2018-08-03T13:12:02.523Z,66.3
2018-08-03T13:12:52.290Z,66.3
2018-08-03T13:13:42.646Z,66.3
2018-08-03T13:14:32.239Z,66.3
2018-08-03T13:15:23.115Z,66.3
2018-08-03T13:16:13.163Z,66.3
2018-08-03T13:17:02.661Z,66.3
2018-08-03T13:17:53.511Z,66.3
2018-08-03T13:18:43.303Z,66.3
2018-08-03T13:19:33.344Z,66.3
2018-08-03T13:20:23.355Z,66.3
2018-08-03T13:21:13.572Z,66.3
2018-08-03T13:22:03.618Z,66.3
2018-08-03T13:22:53.146Z,66.3
2018-08-03T13:23:42.684Z,66.3
2018-08-03T13:24:33.232Z,66.3
2018-08-03T13:25:23.263Z,66.3
2018-08-03T13:26:13.460Z,66.3
2018-08-03T13:27:03.422Z,66.3
2018-08-03T13:27:53.810Z,66.3
2018-08-03T13:28:44.122Z,66.3
2018-08-03T13:29:34.546Z,66.3
2018-08-03T13:30:23.966Z,66.3
2018-08-03T13:31:14.298Z,66.3
2018-08-03T13:32:04.103Z,66.3
2018-08-03T13:32:54.444Z,66.3
2018-08-03T13:33:44.221Z,66.3
2018-08-03T13:34:34.280Z,66.3
2018-08-03T13:35:24.335Z,66.3
2018-08-03T13:36:15.100Z,66.3
2018-08-03T13:37:04.445Z,66.3
2018-08-03T13:37:54.780Z,66.3
2018-08-03T13:38:44.605Z,66.3
2018-08-03T13:39:34.916Z,66.3
2018-08-03T13:40:24.724Z,66.3
2018-08-03T13:41:14.793Z,66.3
2018-08-03T13:42:05.137Z,66.3
2018-08-03T13:42:54.862Z,66.3
2018-08-03T13:43:45.287Z,66.3
2018-08-03T13:44:35.860Z,66.3
2018-08-03T13:45:24.596Z,66.3
2018-08-03T13:46:15.463Z,66.3
2018-08-03T13:47:05.531Z,66.3
2018-08-03T13:47:55.330Z,66.3
2018-08-03T13:48:45.657Z,66.2
2018-08-03T13:49:35.479Z,66.2
2018-08-03T13:50:26.773Z,66.2
2018-08-03T13:51:15.902Z,66.3
2018-08-03T13:52:05.936Z,66.2
2018-08-03T13:52:55.996Z,66.3
2018-08-03T13:53:46.005Z,66.2
2018-08-03T13:54:36.153Z,66.2
2018-08-03T13:55:26.221Z,66.2
2018-08-03T13:56:15.440Z,66.2
2018-08-03T13:57:05.757Z,66.2
2018-08-03T13:57:56.180Z,66.2
2018-08-03T13:58:45.633Z,66.2
2018-08-03T13:59:36.279Z,66.2
2018-08-03T14:00:26.053Z,66.2
2018-08-03T14:01:16.084Z,66.2
2018-08-03T14:02:06.426Z,66.1
2018-08-03T14:02:56.493Z,66.1
2018-08-03T14:03:46.052Z,66.1
2018-08-03T14:04:36.110Z,66.1
2018-08-03T14:05:26.138Z,66.1
2018-08-03T14:06:16.475Z,66.1
2018-08-03T14:07:06.354Z,66.1
2018-08-03T14:07:57.175Z,66.1
2018-08-03T14:08:47.247Z,66.1
2018-08-03T14:09:37.298Z,66.1
2018-08-03T14:10:27.091Z,66.1
2018-08-03T14:11:17.165Z,66.1
2018-08-03T14:12:07.793Z,66.1
2018-08-03T14:12:57.547Z,66.1
2018-08-03T14:13:47.598Z,66.1
2018-08-03T14:14:36.570Z,66.1
2018-08-03T14:15:27.252Z,66.1
2018-08-03T14:16:17.264Z,66.1
2018-08-03T14:17:07.624Z,66.1
2018-08-03T14:17:57.988Z,66.1
2018-08-03T14:18:47.835Z,66.1
2018-08-03T14:19:37.846Z,66.1
2018-08-03T14:20:27.903Z,66.1
2018-08-03T14:21:18.254Z,66.1
2018-08-03T14:22:08.550Z,66.1
2018-08-03T14:22:57.780Z,66
2018-08-03T14:23:48.131Z,66.1
2018-08-03T14:24:37.944Z,66
2018-08-03T14:25:29.148Z,66
2018-08-03T14:26:18.648Z,66
2018-08-03T14:27:08.525Z,66
2018-08-03T14:27:58.773Z,66
2018-08-03T14:28:48.799Z,66
2018-08-03T14:29:38.600Z,66
2018-08-03T14:30:28.994Z,66
2018-08-03T14:31:19.517Z,66
2018-08-03T14:32:09.115Z,65.9
2018-08-03T14:32:58.302Z,65.9
2018-08-03T14:33:49.233Z,65.9
2018-08-03T14:34:38.451Z,65.9
2018-08-03T14:35:28.513Z,65.9
2018-08-03T14:36:19.161Z,65.9
2018-08-03T14:37:09.463Z,65.9
2018-08-03T14:37:59.090Z,65.9
2018-08-03T14:38:49.122Z,65.9
2018-08-03T14:39:39.183Z,65.9
2018-08-03T14:40:29.753Z,65.9
2018-08-03T14:41:20.211Z,65.9
2018-08-03T14:42:09.580Z,65.9
2018-08-03T14:42:59.351Z,65.9
2018-08-03T14:43:49.954Z,65.9
2018-08-03T14:44:39.207Z,65.9
2018-08-03T14:45:29.878Z,65.9
2018-08-03T14:46:20.200Z,65.9
2018-08-03T14:47:09.698Z,65.9
2018-08-03T14:47:59.442Z,65.9
2018-08-03T14:48:50.108Z,65.9
2018-08-03T14:49:40.178Z,65.9
2018-08-03T14:50:30.194Z,65.8
2018-08-03T14:51:20.274Z,65.9
2018-08-03T14:52:09.816Z,65.9
2018-08-03T14:53:00.448Z,65.8
2018-08-03T14:53:50.482Z,65.8
2018-08-03T14:54:40.530Z,65.8
2018-08-03T14:55:30.615Z,65.8
2018-08-03T14:56:20.952Z,65.8
2018-08-03T14:57:10.746Z,65.8
2018-08-03T14:58:01.046Z,65.8
2018-08-03T14:58:50.599Z,65.8
2018-08-03T14:59:40.459Z,65.8
2018-08-03T15:00:31.018Z,65.8
2018-08-03T15:01:20.897Z,65.8
2018-08-03T15:02:11.400Z,65.8
2018-08-03T15:03:00.723Z,65.8
2018-08-03T15:03:51.315Z,65.8
2018-08-03T15:04:41.065Z,65.8
2018-08-03T15:05:31.421Z,65.8
2018-08-03T15:06:21.465Z,65.8
2018-08-03T15:07:11.548Z,65.8
2018-08-03T15:08:01.998Z,65.7
2018-08-03T15:08:52.102Z,65.8
2018-08-03T15:09:41.205Z,65.8
2018-08-03T15:10:31.309Z,65.7
2018-08-03T15:11:21.619Z,65.7
2018-08-03T15:12:11.363Z,65.7
2018-08-03T15:13:02.294Z,65.7
2018-08-03T15:13:52.220Z,65.7
2018-08-03T15:14:42.434Z,65.7
2018-08-03T15:15:32.219Z,65.7
2018-08-03T15:16:22.522Z,65.7
2018-08-03T15:17:12.637Z,65.7
2018-08-03T15:18:02.678Z,65.6
2018-08-03T15:18:52.435Z,65.6
2018-08-03T15:19:43.507Z,65.6
2018-08-03T15:20:32.558Z,65.6
2018-08-03T15:21:22.949Z,65.6
2018-08-03T15:22:12.705Z,65.6
2018-08-03T15:23:03.037Z,65.6
2018-08-03T15:23:52.836Z,65.6
2018-08-03T15:24:42.604Z,65.6
2018-08-03T15:25:33.215Z,65.6
2018-08-03T15:26:22.181Z,65.6
2018-08-03T15:27:12.827Z,65.6
2018-08-03T15:28:03.154Z,65.6
2018-08-03T15:28:53.308Z,65.6
2018-08-03T15:29:43.546Z,65.6
2018-08-03T15:30:33.709Z,65.6
2018-08-03T15:31:23.698Z,65.6
2018-08-03T15:32:13.215Z,65.6
2018-08-03T15:33:03.284Z,65.6
2018-08-03T15:33:53.628Z,65.6
2018-08-03T15:34:43.939Z,65.6
2018-08-03T15:35:34.054Z,65.6
2018-08-03T15:36:23.843Z,65.5
2018-08-03T15:37:13.944Z,65.5
2018-08-03T15:38:04.225Z,65.5
2018-08-03T15:38:54.294Z,65.5
2018-08-03T15:39:43.819Z,65.5
2018-08-03T15:40:34.231Z,65.5
2018-08-03T15:41:24.218Z,65.5
2018-08-03T15:42:14.558Z,65.5
2018-08-03T15:43:04.062Z,65.5
2018-08-03T15:43:53.559Z,65.5
2018-08-03T15:44:44.696Z,65.5
2018-08-03T15:45:34.631Z,65.4
2018-08-03T15:46:24.858Z,65.4
2018-08-03T15:47:14.949Z,65.4
2018-08-03T15:48:05.025Z,65.4
2018-08-03T15:48:54.783Z,65.4
2018-08-03T15:49:44.928Z,65.4
2018-08-03T15:50:34.726Z,65.4
2018-08-03T15:51:25.016Z,65.4
2018-08-03T15:52:15.348Z,65.4
2018-08-03T15:53:05.391Z,65.4
2018-08-03T15:53:55.474Z,65.4
2018-08-03T15:54:44.970Z,65.4
2018-08-03T15:55:35.003Z,65.4
2018-08-03T15:56:25.674Z,65.4
2018-08-03T15:57:15.712Z,65.4
2018-08-03T15:58:05.506Z,65.4
2018-08-03T15:58:55.841Z,65.4
2018-08-03T19:19:11.831Z,63.9
2018-08-03T19:20:02.892Z,63.9
2018-08-03T19:20:52.667Z,63.9
2018-08-03T19:21:43.364Z,63.9
2018-08-03T19:22:32.036Z,63.9
2018-08-03T19:23:23.374Z,63.9
2018-08-03T19:24:12.481Z,63.8
2018-08-03T19:25:02.569Z,63.9
2018-08-03T19:25:52.843Z,63.8
2018-08-03T19:26:42.998Z,63.8
2018-08-03T19:27:32.999Z,63.8
2018-08-03T19:28:37.206Z,63.8
2018-08-03T19:29:12.628Z,63.8
2018-08-03T19:30:02.685Z,63.8
2018-08-03T19:30:53.030Z,63.8
2018-08-03T19:31:42.783Z,63.8
2018-08-03T19:32:32.889Z,63.8
2018-08-03T19:33:23.887Z,63.8
2018-08-03T19:34:13.289Z,63.8
2018-08-03T19:35:03.389Z,63.8
2018-08-03T19:35:53.420Z,63.8
2018-08-03T19:36:43.190Z,63.8
2018-08-03T19:37:33.781Z,63.8
2018-08-03T19:38:23.528Z,63.8
2018-08-03T19:39:13.408Z,63.8
2018-08-03T19:40:03.968Z,63.7
2018-08-03T19:40:54.110Z,63.8
2018-08-03T19:41:43.866Z,63.7
2018-08-03T19:42:33.948Z,63.7
2018-08-03T19:43:24.062Z,63.7
2018-08-03T19:44:14.574Z,63.7
2018-08-03T19:45:03.666Z,63.7
2018-08-03T19:45:54.669Z,63.7
2018-08-03T19:46:43.848Z,63.7
2018-08-03T19:47:34.539Z,63.7
2018-08-03T19:48:25.797Z,63.7
2018-08-03T19:49:29.658Z,63.7
2018-08-03T19:50:19.425Z,63.6
2018-08-03T19:50:54.500Z,63.6
2018-08-03T19:51:44.799Z,63.6
2018-08-03T19:52:49.818Z,63.6
2018-08-03T19:53:24.422Z,63.6
2018-08-03T19:54:15.571Z,63.6
2018-08-03T19:55:04.847Z,63.6
2018-08-03T19:55:55.056Z,63.6
2018-08-03T19:56:45.426Z,63.6
2018-08-03T19:57:35.039Z,63.6
2018-08-03T19:58:25.577Z,63.6
2018-08-03T19:59:15.786Z,63.6
2018-08-03T20:00:05.988Z,63.6
2018-08-03T20:00:55.845Z,63.6
2018-08-03T20:01:45.162Z,63.6
2018-08-03T20:02:49.844Z,63.6
2018-08-03T20:03:25.270Z,63.6
2018-08-03T20:04:15.354Z,63.6
2018-08-03T20:05:06.508Z,63.6
2018-08-03T20:05:55.964Z,63.6
2018-08-03T20:06:45.511Z,63.5
2018-08-03T20:07:35.324Z,63.5
2018-08-03T20:08:26.182Z,63.5
2018-08-03T20:09:16.492Z,63.5
2018-08-03T20:10:06.307Z,63.5
2018-08-03T20:10:55.587Z,63.5
2018-08-03T20:11:45.669Z,63.5
2018-08-03T20:12:36.033Z,63.5
2018-08-03T20:13:26.679Z,63.5
2018-08-03T20:14:16.119Z,63.5
2018-08-03T20:15:06.188Z,63.5
2018-08-03T20:15:56.779Z,63.4
2018-08-03T20:16:46.343Z,63.4
2018-08-03T20:17:36.592Z,63.4
2018-08-03T20:18:26.645Z,63.4
2018-08-03T20:19:17.005Z,63.4
2018-08-03T20:20:07.060Z,63.4
2018-08-03T20:21:11.762Z,63.4
2018-08-03T20:21:47.217Z,63.4
2018-08-03T20:22:37.490Z,63.4
2018-08-03T20:23:27.617Z,63.4
2018-08-03T20:24:17.359Z,63.4
2018-08-03T20:25:06.855Z,63.4
2018-08-03T20:25:57.996Z,63.4
2018-08-03T20:26:47.866Z,63.4
2018-08-03T20:27:37.926Z,63.4
2018-08-03T20:28:41.783Z,63.4
2018-08-03T20:29:17.774Z,63.4
2018-08-03T20:30:07.795Z,63.4
2018-08-03T20:31:12.564Z,63.4
2018-08-03T20:31:47.681Z,63.4
2018-08-03T20:32:37.911Z,63.3
2018-08-03T20:33:28.298Z,63.3
2018-08-03T20:34:17.792Z,63.3
2018-08-03T20:35:08.147Z,63.3
2018-08-03T20:35:58.217Z,63.3
2018-08-03T20:36:48.368Z,63.3
2018-08-03T20:37:38.386Z,63.3
2018-08-03T20:38:28.691Z,63.3
2018-08-03T20:39:19.412Z,63.3
2018-08-03T20:40:08.604Z,63.3
2018-08-03T20:40:59.378Z,63.3
2018-08-03T20:41:48.993Z,63.3
2018-08-03T20:42:38.799Z,63.3
2018-08-03T20:43:28.598Z,63.3
2018-08-03T20:44:18.640Z,63.3
2018-08-03T20:45:09.048Z,63.3
2018-08-03T20:45:59.386Z,63.3
2018-08-03T20:46:49.103Z,63.3
2018-08-03T20:47:39.486Z,63.3
2018-08-03T20:48:29.531Z,63.3
2018-08-03T20:49:19.120Z,63.2
2018-08-03T20:50:09.377Z,63.2
2018-08-03T20:50:59.450Z,63.2
2018-08-03T20:51:49.237Z,63.2
2018-08-03T20:53:29.591Z,63.2
2018-08-03T20:54:20.172Z,63.2
2018-08-03T20:55:09.776Z,63.2
2018-08-03T20:56:00.108Z,63.2
2018-08-03T20:56:50.096Z,63.2
2018-08-03T20:57:40.206Z,63.1
2018-08-03T20:58:31.556Z,63.2
2018-08-03T20:59:20.333Z,63.1
2018-08-03T21:00:25.177Z,63.1
2018-08-03T21:01:00.537Z,63.1
2018-08-03T21:01:50.253Z,63.1
2018-08-03T21:02:41.425Z,63.1
2018-08-03T21:03:30.442Z,63.1
2018-08-03T21:04:20.759Z,63.1
2018-08-03T21:05:10.791Z,63.1
2018-08-03T21:06:00.874Z,63.1
2018-08-03T21:06:50.941Z,63.1
2018-08-03T21:07:40.728Z,63.1
2018-08-03T21:08:30.541Z,63.1
2018-08-03T21:09:21.505Z,63.1
2018-08-03T21:10:11.167Z,63.1
2018-08-03T21:11:01.229Z,63.1
2018-08-03T21:11:51.341Z,63
2018-08-03T21:12:42.713Z,63
2018-08-03T21:13:31.754Z,63
2018-08-03T21:14:21.771Z,63
2018-08-03T21:15:10.822Z,62.9
2018-08-03T21:16:01.390Z,62.9
2018-08-03T21:16:51.789Z,62.9
2018-08-03T21:17:42.183Z,62.9
2018-08-03T21:18:31.338Z,62.9
2018-08-03T21:19:21.423Z,62.9
2018-08-03T21:20:11.617Z,62.9
2018-08-03T21:21:01.744Z,62.9
2018-08-03T21:21:52.180Z,62.9
2018-08-03T21:22:42.133Z,62.9
2018-08-03T21:23:32.590Z,62.9
2018-08-03T21:24:22.295Z,62.9
2018-08-03T21:25:11.822Z,62.9
2018-08-03T21:26:02.439Z,62.9
2018-08-03T21:26:52.526Z,62.9
2018-08-03T21:27:42.547Z,62.9
2018-08-03T21:28:32.660Z,62.8
2018-08-03T21:29:22.608Z,62.8
2018-08-03T21:30:13.415Z,62.8
2018-08-03T21:31:02.868Z,62.8
2018-08-03T21:32:07.571Z,62.8
2018-08-03T21:32:42.977Z,62.8
2018-08-03T21:33:33.022Z,62.8
2018-08-03T21:34:22.304Z,62.8
2018-08-03T21:35:12.672Z,62.8
2018-08-03T21:36:02.259Z,62.8
2018-08-03T21:37:07.051Z,62.8
2018-08-03T21:37:43.273Z,62.8
2018-08-03T21:38:32.888Z,62.8
2018-08-03T21:39:37.811Z,62.8
2018-08-03T21:40:13.522Z,62.8
2018-08-03T21:41:03.566Z,62.8
2018-08-03T21:41:53.664Z,62.8
2018-08-03T21:42:58.431Z,62.8
2018-08-03T21:43:33.693Z,62.8
2018-08-03T21:44:23.673Z,62.8
2018-08-03T21:45:13.901Z,62.8
2018-08-03T21:46:04.015Z,62.7
2018-08-03T21:46:53.499Z,62.7
2018-08-03T21:47:44.121Z,62.7
2018-08-03T21:48:33.904Z,62.7
2018-08-03T21:49:24.605Z,62.7
2018-08-03T21:50:14.006Z,62.7
2018-08-03T21:51:04.088Z,62.7
2018-08-03T21:52:07.620Z,62.7
2018-08-03T21:52:43.922Z,62.6
2018-08-03T21:53:33.810Z,62.6
2018-08-03T21:54:24.370Z,62.6
2018-08-03T21:55:13.927Z,62.6
2018-08-03T21:56:04.808Z,62.6
2018-08-03T21:56:54.355Z,62.6
2018-08-03T21:57:44.340Z,62.6
2018-08-03T21:58:49.630Z,62.6
2018-08-03T21:59:24.276Z,62.6
2018-08-03T22:00:14.531Z,62.6
2018-08-03T22:01:05.403Z,62.6
2018-08-03T22:01:55.109Z,62.6
2018-08-03T22:02:44.262Z,62.6
2018-08-03T22:03:34.632Z,62.6
2018-08-03T22:04:24.366Z,62.6
2018-08-03T22:05:14.731Z,62.6
2018-08-03T22:06:20.264Z,62.6
2018-08-03T22:06:55.371Z,62.6
2018-08-03T22:07:45.921Z,62.6
2018-08-03T22:08:35.394Z,62.6
2018-08-03T22:09:25.098Z,62.6
2018-08-03T22:10:15.464Z,62.6
2018-08-03T22:11:05.134Z,62.5
2018-08-03T22:11:55.701Z,62.5
2018-08-03T22:12:45.268Z,62.5
2018-08-03T22:13:35.227Z,62.5
2018-08-03T22:14:26.219Z,62.5
2018-08-03T22:15:15.994Z,62.5
2018-08-03T22:16:05.866Z,62.5
2018-08-03T22:16:56.261Z,62.5
2018-08-03T22:17:46.216Z,62.5
2018-08-03T22:18:36.254Z,62.5
2018-08-03T22:19:26.148Z,62.4
2018-08-03T22:20:16.625Z,62.4
2018-08-03T22:21:06.449Z,62.4
2018-08-03T22:21:56.548Z,62.4
2018-08-03T22:22:46.837Z,62.4
2018-08-03T22:23:36.378Z,62.4
2018-08-03T22:24:27.781Z,62.4
2018-08-03T22:25:17.362Z,62.4
2018-08-03T22:26:07.123Z,62.4
2018-08-03T22:26:57.211Z,62.4
2018-08-03T22:27:47.331Z,62.4
2018-08-03T22:28:36.908Z,62.4
2018-08-03T22:29:27.354Z,62.4
2018-08-03T22:30:17.463Z,62.4
2018-08-03T22:31:07.458Z,62.4
2018-08-03T22:31:57.511Z,62.4
2018-08-03T22:32:47.939Z,62.4
2018-08-03T22:33:37.364Z,62.4
2018-08-03T22:34:27.501Z,62.3
2018-08-03T22:35:17.832Z,62.4
2018-08-03T22:36:07.353Z,62.3
2018-08-03T22:36:57.970Z,62.3
2018-08-03T22:37:47.993Z,62.3
2018-08-03T22:38:38.721Z,62.3
2018-08-03T22:39:28.197Z,62.3
2018-08-03T22:40:18.386Z,62.3
2018-08-03T22:41:08.252Z,62.3
2018-08-03T22:41:57.807Z,62.3
2018-08-03T22:42:48.177Z,62.3
2018-08-03T22:43:37.614Z,62.3
2018-08-03T22:44:28.307Z,62.3
2018-08-03T22:45:17.730Z,62.3
2018-08-03T22:46:08.742Z,62.3
2018-08-03T22:47:13.009Z,62.3
2018-08-03T22:47:48.741Z,62.3
2018-08-03T22:48:38.569Z,62.3
2018-08-03T22:49:28.338Z,62.3
2018-08-03T22:50:18.657Z,62.2
2018-08-03T22:51:08.735Z,62.2
2018-08-03T22:51:58.211Z,62.2
2018-08-03T22:52:48.604Z,62.2
2018-08-03T22:53:38.693Z,62.2
2018-08-03T22:54:29.285Z,62.2
2018-08-03T22:55:18.763Z,62.2
2018-08-03T22:56:09.129Z,62.2
2018-08-03T22:56:59.678Z,62.2
2018-08-03T22:57:49.275Z,62.2
2018-08-03T22:58:39.318Z,62.2
2018-08-03T22:59:29.396Z,62.1
2018-08-03T23:00:19.475Z,62.1
2018-08-03T23:01:10.890Z,62.1
2018-08-03T23:01:59.606Z,62.1
2018-08-03T23:02:49.379Z,62.1
2018-08-03T23:03:39.716Z,62.1
2018-08-03T23:04:29.788Z,62.1
2018-08-03T23:05:19.841Z,62.1
2018-08-03T23:06:10.235Z,62.1
2018-08-03T23:07:00.285Z,62.1
2018-08-03T23:07:49.799Z,62.1
2018-08-03T23:08:39.822Z,62.1
2018-08-03T23:09:30.544Z,62.1
2018-08-03T23:10:20.044Z,62.1
2018-08-03T23:11:10.112Z,62.1
2018-08-03T23:11:59.898Z,62.1
2018-08-03T23:12:50.258Z,62.1
2018-08-03T23:13:39.730Z,62.1
2018-08-03T23:14:29.808Z,62.1
2018-08-03T23:15:20.449Z,62
2018-08-03T23:16:10.494Z,62
2018-08-03T23:17:00.505Z,62
2018-08-03T23:17:51.128Z,62
2018-08-03T23:18:40.695Z,62
2018-08-03T23:19:31.259Z,62
2018-08-03T23:20:20.500Z,62
2018-08-03T23:21:10.896Z,62
2018-08-03T23:22:00.950Z,62
2018-08-03T23:22:50.882Z,62
2018-08-03T23:23:41.585Z,62
2018-08-03T23:24:31.309Z,61.9
2018-08-03T23:25:21.435Z,62
2018-08-03T23:26:11.806Z,61.9
2018-08-03T23:27:01.564Z,61.9
2018-08-03T23:27:51.587Z,61.9
2018-08-03T23:28:41.114Z,61.9
2018-08-03T23:29:31.445Z,61.9
2018-08-03T23:30:22.044Z,61.9
2018-08-03T23:31:11.595Z,61.9
2018-08-03T23:32:01.941Z,61.9
2018-08-03T23:32:51.993Z,61.9
2018-08-03T23:33:41.763Z,61.9
2018-08-03T23:34:32.134Z,61.9
2018-08-03T23:35:22.451Z,61.9
2018-08-03T23:36:12.506Z,61.9
2018-08-03T23:37:02.338Z,61.9
2018-08-03T23:37:52.110Z,61.9
2018-08-03T23:38:42.715Z,61.9
2018-08-03T23:39:32.530Z,61.9
2018-08-03T23:40:22.842Z,61.9
2018-08-03T23:41:12.655Z,61.9
2018-08-03T23:42:02.692Z,61.8
2018-08-03T23:42:53.045Z,61.8
2018-08-03T23:43:42.838Z,61.8
2018-08-03T23:44:32.618Z,61.8
2018-08-03T23:45:23.236Z,61.8
2018-08-03T23:46:12.540Z,61.8
2018-08-03T23:47:02.330Z,61.8
2018-08-03T23:47:52.946Z,61.8
2018-08-03T23:48:43.008Z,61.8
2018-08-03T23:49:32.572Z,61.8
2018-08-03T23:50:22.860Z,61.8
2018-08-03T23:51:12.712Z,61.8
2018-08-03T23:52:02.993Z,61.8
2018-08-03T23:52:53.049Z,61.8
2018-08-03T23:53:43.624Z,61.8
2018-08-03T23:54:33.957Z,61.8
2018-08-03T23:55:23.445Z,61.8
2018-08-03T23:56:13.846Z,61.8
2018-08-03T23:57:03.850Z,61.8
2018-08-03T23:57:54.407Z,61.7
2018-08-03T23:58:44.036Z,61.7
2018-08-03T23:59:34.385Z,61.7
